createdAt,value
2019-03-26T03:07:21.018Z,5.6
2019-03-26T03:08:11.195Z,5.6
2019-03-26T03:09:01.182Z,5.6
2019-03-26T03:09:51.200Z,5.6
2019-03-26T03:10:41.262Z,5.6
2019-03-26T03:11:31.311Z,5.6
2019-03-26T03:12:21.116Z,5.6
2019-03-26T03:13:11.433Z,5.6
2019-03-26T03:14:01.225Z,5.6
2019-03-26T03:14:51.567Z,5.6
2019-03-26T03:15:41.380Z,5.6
2019-03-26T03:16:31.675Z,5.6
2019-03-26T03:17:21.182Z,5.6
2019-03-26T03:18:11.543Z,5.6
2019-03-26T03:19:01.855Z,5.6
2019-03-26T03:19:51.930Z,5.6
2019-03-26T03:20:41.702Z,5.6
2019-03-26T03:21:31.785Z,5.6
2019-03-26T03:22:21.865Z,5.6
2019-03-26T03:23:11.877Z,5.7
2019-03-26T03:24:01.952Z,5.6
2019-03-26T03:24:52.042Z,5.6
2019-03-26T03:25:42.342Z,5.6
2019-03-26T03:26:32.266Z,5.6
2019-03-26T03:27:22.488Z,5.7
2019-03-26T03:28:12.265Z,5.7
2019-03-26T03:29:02.327Z,5.7
2019-03-26T03:29:52.379Z,5.7
2019-03-26T03:30:42.773Z,5.7
2019-03-26T03:31:32.808Z,5.7
2019-03-26T03:32:22.939Z,5.7
2019-03-26T03:33:12.937Z,5.7
2019-03-26T03:34:03.099Z,5.7
2019-03-26T03:34:53.054Z,5.7
2019-03-26T03:35:54.013Z,5.7
2019-03-26T03:36:33.157Z,5.7
2019-03-26T03:37:23.255Z,5.7
2019-03-26T03:38:13.257Z,5.7
2019-03-26T03:39:03.319Z,5.7
2019-03-26T03:39:53.209Z,5.7
2019-03-26T03:40:43.438Z,5.7
2019-03-26T03:41:33.518Z,5.7
2019-03-26T03:42:23.590Z,5.7
2019-03-26T03:43:13.635Z,5.7
2019-03-26T03:44:03.860Z,5.7
2019-03-26T03:44:53.501Z,5.7
2019-03-26T03:45:43.799Z,5.7
2019-03-26T03:46:33.856Z,5.7
2019-03-26T03:47:23.923Z,5.7
2019-03-26T03:48:13.988Z,5.7
2019-03-26T03:49:04.105Z,5.7
2019-03-26T03:49:54.122Z,5.7
2019-03-26T03:50:44.334Z,5.7
2019-03-26T03:51:34.102Z,5.7
2019-03-26T03:52:24.298Z,5.8
2019-03-26T03:53:14.070Z,5.7
2019-03-26T03:54:04.484Z,5.7
2019-03-26T03:54:54.497Z,5.7
2019-03-26T03:55:44.533Z,5.7
2019-03-26T03:56:34.609Z,5.7
2019-03-26T03:57:24.661Z,5.8
2019-03-26T03:58:14.743Z,5.8
2019-03-26T03:59:04.796Z,5.7
2019-03-26T03:59:54.553Z,5.8
2019-03-26T04:00:44.922Z,5.7
2019-03-26T04:01:34.706Z,5.7
2019-03-26T04:02:24.500Z,5.7
2019-03-26T04:03:15.122Z,5.7
2019-03-26T04:04:04.895Z,5.7
2019-03-26T04:04:55.255Z,5.7
2019-03-26T04:05:45.280Z,5.8
2019-03-26T04:06:35.052Z,5.7
2019-03-26T04:07:25.394Z,5.8
2019-03-26T04:08:15.485Z,5.8
2019-03-26T04:09:05.279Z,5.8
2019-03-26T04:09:55.297Z,5.7
2019-03-26T04:10:45.630Z,5.7
2019-03-26T04:11:35.711Z,5.7
2019-03-26T04:12:25.756Z,5.7
2019-03-26T04:13:15.822Z,5.7
2019-03-26T04:14:05.884Z,5.8
2019-03-26T04:14:55.419Z,5.8
2019-03-26T04:15:46.074Z,5.7
2019-03-26T04:16:36.063Z,5.8
2019-03-26T04:17:26.139Z,5.8
2019-03-26T04:18:16.199Z,5.8
2019-03-26T04:19:05.986Z,5.8
2019-03-26T04:19:56.168Z,5.8
2019-03-26T04:20:46.369Z,5.8
2019-03-26T04:21:36.440Z,5.8
2019-03-26T04:22:26.493Z,5.8
2019-03-26T04:23:16.573Z,5.8
2019-03-26T04:24:06.348Z,5.8
2019-03-26T04:24:56.694Z,5.8
2019-03-26T04:25:46.449Z,5.8
2019-03-26T04:26:36.516Z,5.8
2019-03-26T04:27:26.867Z,5.8
2019-03-26T04:28:16.924Z,5.8
2019-03-26T04:29:06.728Z,5.8
2019-03-26T04:29:56.770Z,5.8
2019-03-26T04:30:46.924Z,5.8
2019-03-26T04:31:37.197Z,5.8
2019-03-26T04:32:27.223Z,5.8
2019-03-26T04:33:17.289Z,5.8
2019-03-26T04:34:07.065Z,5.8
2019-03-26T04:34:57.405Z,5.8
2019-03-26T04:35:47.501Z,5.8
2019-03-26T04:36:37.361Z,5.8
2019-03-26T04:37:27.587Z,5.8
2019-03-26T04:38:17.647Z,5.8
2019-03-26T04:39:07.716Z,5.8
2019-03-26T04:39:57.777Z,5.8
2019-03-26T04:40:47.820Z,5.8
2019-03-26T04:41:37.913Z,5.8
2019-03-26T04:42:27.946Z,5.8
2019-03-26T04:43:20.592Z,5.8
2019-03-26T04:44:08.070Z,5.8
2019-03-26T04:44:58.124Z,5.8
2019-03-26T04:45:48.193Z,5.8
2019-03-26T04:46:38.255Z,5.8
2019-03-26T04:47:28.033Z,5.8
2019-03-26T04:48:18.105Z,5.8
2019-03-26T04:49:08.431Z,5.8
2019-03-26T04:49:58.506Z,5.8
2019-03-26T04:50:48.550Z,5.8
2019-03-26T04:51:38.330Z,5.8
2019-03-26T04:52:28.391Z,5.8
2019-03-26T04:53:18.464Z,5.8
2019-03-26T04:54:08.804Z,5.8
2019-03-26T04:54:58.872Z,5.8
2019-03-26T04:55:48.983Z,5.8
2019-03-26T04:56:38.973Z,5.8
2019-03-26T04:57:28.762Z,5.8
2019-03-26T04:58:18.873Z,5.8
2019-03-26T04:59:08.890Z,5.8
2019-03-26T04:59:58.945Z,5.8
2019-03-26T05:00:49.300Z,5.8
2019-03-26T05:01:39.341Z,5.8
2019-03-26T05:02:29.445Z,5.8
2019-03-26T05:03:19.476Z,5.9
2019-03-26T05:04:09.552Z,5.8
2019-03-26T05:04:59.581Z,5.9
2019-03-26T05:05:49.674Z,5.8
2019-03-26T05:06:39.984Z,5.9
2019-03-26T05:07:29.770Z,5.9
2019-03-26T05:08:19.861Z,5.9
2019-03-26T05:09:09.630Z,5.9
2019-03-26T05:09:59.679Z,5.9
2019-03-26T05:10:50.872Z,5.9
2019-03-26T05:11:39.797Z,5.9
2019-03-26T05:12:30.193Z,5.9
2019-03-26T05:13:19.919Z,5.9
2019-03-26T05:14:10.259Z,5.9
2019-03-26T05:15:00.379Z,5.9
2019-03-26T05:15:50.114Z,5.9
2019-03-26T05:16:39.900Z,5.9
2019-03-26T05:17:30.234Z,5.9
2019-03-26T05:18:20.334Z,5.9
2019-03-26T05:19:10.621Z,5.9
2019-03-26T05:20:00.738Z,5.9
2019-03-26T05:20:50.763Z,6
2019-03-26T05:21:40.816Z,6
2019-03-26T05:22:30.873Z,6
2019-03-26T05:23:20.673Z,6
2019-03-26T05:24:10.723Z,6.1
2019-03-26T05:25:01.221Z,6.1
2019-03-26T05:25:51.136Z,6.1
2019-03-26T05:26:41.172Z,6.1
2019-03-26T05:27:30.961Z,6.1
2019-03-26T05:28:21.526Z,6.1
2019-03-26T05:29:11.349Z,6.1
2019-03-26T05:30:01.356Z,6.2
2019-03-26T05:30:51.477Z,6.2
2019-03-26T05:31:41.533Z,6.3
2019-03-26T05:32:31.596Z,6.3
2019-03-26T05:33:21.661Z,6.3
2019-03-26T05:34:11.718Z,6.3
2019-03-26T05:35:01.527Z,6.4
2019-03-26T05:35:53.365Z,6.4
2019-03-26T05:36:52.993Z,6.4
2019-03-26T05:37:31.978Z,6.5
2019-03-26T05:38:22.029Z,6.6
2019-03-26T05:39:11.828Z,6.6
2019-03-26T05:40:02.153Z,6.7
2019-03-26T05:40:51.650Z,6.8
2019-03-26T05:41:42.282Z,6.8
2019-03-26T05:42:32.055Z,6.9
2019-03-26T05:43:22.394Z,7
2019-03-26T05:44:12.455Z,7.1
2019-03-26T05:45:02.515Z,7.3
2019-03-26T05:45:52.560Z,7.4
2019-03-26T05:46:42.340Z,7.4
2019-03-26T05:47:32.677Z,7.6
2019-03-26T05:48:22.467Z,7.8
2019-03-26T05:49:12.822Z,7.8
2019-03-26T05:50:02.884Z,7.9
2019-03-26T05:50:52.122Z,8.1
2019-03-26T05:51:43.009Z,8.2
2019-03-26T05:52:33.050Z,8.3
2019-03-26T05:53:22.834Z,8.4
2019-03-26T05:54:13.222Z,8.6
2019-03-26T05:55:02.972Z,8.7
2019-03-26T05:55:53.294Z,8.8
2019-03-26T05:56:43.358Z,9
2019-03-26T05:57:33.416Z,9.1
2019-03-26T05:58:23.489Z,9.3
2019-03-26T05:59:13.543Z,9.5
2019-03-26T06:00:03.604Z,9.7
2019-03-26T06:00:53.649Z,9.9
2019-03-26T06:01:43.459Z,10.1
2019-03-26T06:02:33.773Z,10.3
2019-03-26T06:03:23.843Z,10.6
2019-03-26T06:05:20.626Z,11.1
2019-03-26T06:06:10.771Z,11.4
2019-03-26T06:07:06.768Z,11.6
2019-03-26T06:07:51.082Z,11.9
2019-03-26T06:08:41.128Z,12.1
2019-03-26T06:09:31.183Z,12.4
2019-03-26T06:10:20.983Z,12.7
2019-03-26T06:11:11.052Z,12.9
2019-03-26T06:12:01.382Z,13.3
2019-03-26T06:12:51.868Z,13.5
2019-03-26T06:13:41.588Z,13.8
2019-03-26T06:14:31.553Z,14
2019-03-26T06:15:21.335Z,14.3
2019-03-26T06:16:11.679Z,14.4
2019-03-26T06:17:01.462Z,14.7
2019-03-26T06:17:51.803Z,14.9
2019-03-26T06:18:41.853Z,15.1
2019-03-26T06:19:31.908Z,15.3
2019-03-26T06:20:21.972Z,15.4
2019-03-26T06:21:12.035Z,15.6
2019-03-26T06:22:01.545Z,15.7
2019-03-26T06:22:51.876Z,15.8
2019-03-26T06:23:42.211Z,15.9
2019-03-26T06:24:31.997Z,15.9
2019-03-26T06:25:22.244Z,16.1
2019-03-26T06:26:12.130Z,16.1
2019-03-26T06:27:02.465Z,16.1
2019-03-26T06:27:52.247Z,16.1
2019-03-26T06:28:42.357Z,16.1
2019-03-26T06:29:32.645Z,16.1
2019-03-26T06:30:22.422Z,16.1
2019-03-26T06:31:12.210Z,16.1
2019-03-26T06:32:02.831Z,16.1
2019-03-26T06:32:52.612Z,16.1
2019-03-26T06:33:42.655Z,16.1
2019-03-26T06:34:33.008Z,16.1
2019-03-26T06:35:22.783Z,16.1
2019-03-26T06:36:12.844Z,16.1
2019-03-26T06:37:03.223Z,16.1
2019-03-26T06:37:53.253Z,16.1
2019-03-26T06:38:43.304Z,16.1
2019-03-26T06:39:33.102Z,16.2
2019-03-26T06:40:23.156Z,16.3
2019-03-26T06:41:13.496Z,16.3
2019-03-26T06:42:03.561Z,16.3
2019-03-26T06:42:53.611Z,16.4
2019-03-26T06:43:43.396Z,16.4
2019-03-26T06:44:33.726Z,16.5
2019-03-26T06:45:23.801Z,16.6
2019-03-26T06:46:13.860Z,16.7
2019-03-26T06:47:03.913Z,16.8
2019-03-26T06:47:53.968Z,16.9
2019-03-26T06:49:34.101Z,17.1
2019-03-26T06:50:23.908Z,17.3
2019-03-26T06:51:14.208Z,17.4
2019-03-26T06:52:03.739Z,17.5
2019-03-26T06:52:54.058Z,17.6
2019-03-26T06:53:44.399Z,17.8
2019-03-26T06:54:34.455Z,13.1
2019-03-26T06:55:24.524Z,11.9
2019-03-26T06:56:14.583Z,20.1
2019-03-26T06:57:03.630Z,29.8
2019-03-26T06:57:54.715Z,29.4
2019-03-26T06:58:44.768Z,31
2019-03-26T06:59:34.563Z,31.4
2019-03-26T07:00:24.880Z,31.4
2019-03-26T07:01:14.387Z,31.3
2019-03-26T07:02:05.006Z,31.1
2019-03-26T07:02:55.157Z,30.7
2019-03-26T07:05:21.015Z,29.9
2019-03-26T07:06:10.873Z,29.6
2019-03-26T07:07:00.963Z,29.5
2019-03-26T07:07:51.013Z,29.3
2019-03-26T07:08:41.080Z,29.2
2019-03-26T07:09:31.130Z,28.9
2019-03-26T07:10:21.429Z,28.9
2019-03-26T07:11:10.981Z,28.7
2019-03-26T07:12:01.537Z,28.6
2019-03-26T07:12:51.092Z,28.4
2019-03-26T07:13:41.437Z,28.3
2019-03-26T07:14:31.737Z,28.2
2019-03-26T07:15:21.785Z,28.1
2019-03-26T07:16:11.622Z,28
2019-03-26T07:17:01.199Z,27.9
2019-03-26T07:17:53.288Z,27.9
2019-03-26T07:18:41.315Z,27.9
2019-03-26T07:19:31.892Z,27.9
2019-03-26T07:20:21.674Z,28
2019-03-26T07:21:11.979Z,28.1
2019-03-26T07:22:01.497Z,28.1
2019-03-26T07:22:52.319Z,28.2
2019-03-26T07:23:42.397Z,30.6
2019-03-26T07:24:32.214Z,31.4
2019-03-26T07:25:21.968Z,32
2019-03-26T07:26:12.169Z,32.8
2019-03-26T07:27:17.051Z,32.9
2019-03-26T07:27:52.699Z,32.7
2019-03-26T07:28:42.521Z,32.7
2019-03-26T07:29:32.591Z,32.5
2019-03-26T07:30:22.801Z,32.3
2019-03-26T07:31:12.441Z,32.2
2019-03-26T07:32:02.787Z,31.4
2019-03-26T07:32:52.886Z,32.9
2019-03-26T07:33:42.873Z,32.8
2019-03-26T07:34:33.053Z,32.9
2019-03-26T07:35:22.711Z,33.2
2019-03-26T07:36:13.078Z,33.4
2019-03-26T07:37:03.146Z,33.4
2019-03-26T07:37:53.201Z,33.5
2019-03-26T07:38:42.981Z,33.5
2019-03-26T07:39:33.120Z,33.4
2019-03-26T07:40:23.097Z,33.3
2019-03-26T07:41:13.442Z,33.4
2019-03-26T07:42:03.229Z,33.5
2019-03-26T07:42:53.570Z,33.6
2019-03-26T07:43:43.602Z,33.6
2019-03-26T07:44:33.668Z,33.8
2019-03-26T07:45:23.736Z,33.8
2019-03-26T07:46:13.528Z,33.8
2019-03-26T07:47:03.585Z,33.8
2019-03-26T07:47:53.654Z,33.8
2019-03-26T07:48:44.042Z,33.8
2019-03-26T07:49:34.028Z,33.8
2019-03-26T07:50:24.103Z,33.8
2019-03-26T07:51:13.875Z,33.9
2019-03-26T07:52:04.218Z,33.9
2019-03-26T07:52:54.277Z,33.9
2019-03-26T07:53:44.348Z,33.9
2019-03-26T07:54:34.137Z,33.9
2019-03-26T07:55:24.470Z,33.9
2019-03-26T07:56:14.536Z,34
2019-03-26T07:57:04.593Z,33.9
2019-03-26T07:57:54.386Z,33.9
2019-03-26T07:58:44.717Z,33.9
2019-03-26T07:59:34.763Z,33.9
2019-03-26T08:00:24.827Z,33.9
2019-03-26T08:01:14.617Z,34
2019-03-26T08:02:04.695Z,34
2019-03-26T08:02:55.019Z,34.1
2019-03-26T08:03:45.085Z,34.1
2019-03-26T08:04:35.127Z,34.1
2019-03-26T08:05:31.422Z,34.1
2019-03-26T08:06:15.269Z,34.1
2019-03-26T08:07:05.324Z,34.1
2019-03-26T08:08:00.287Z,34.2
2019-03-26T08:08:45.184Z,34.2
2019-03-26T08:09:36.041Z,34.3
2019-03-26T08:10:25.581Z,34.4
2019-03-26T08:11:15.643Z,34.4
2019-03-26T08:12:05.701Z,34.5
2019-03-26T08:12:55.597Z,34.6
2019-03-26T08:13:45.845Z,34.8
2019-03-26T08:14:35.947Z,34.9
2019-03-26T08:15:25.737Z,34.9
2019-03-26T08:16:15.499Z,35
2019-03-26T08:17:05.834Z,35
2019-03-26T08:17:56.097Z,35
2019-03-26T08:18:45.889Z,35
2019-03-26T08:19:36.224Z,35.1
2019-03-26T08:20:26.281Z,35.1
2019-03-26T08:21:16.344Z,35.2
2019-03-26T08:22:06.401Z,35.3
2019-03-26T08:22:56.176Z,35.3
2019-03-26T08:23:46.546Z,35.3
2019-03-26T08:24:36.595Z,35.3
2019-03-26T08:25:26.638Z,35.3
2019-03-26T08:26:16.773Z,35.3
2019-03-26T08:27:06.761Z,35.2
2019-03-26T08:27:56.838Z,35.3
2019-03-26T08:28:46.615Z,35.2
2019-03-26T08:29:36.953Z,35.3
2019-03-26T08:30:26.734Z,35.3
2019-03-26T08:31:17.063Z,35.3
2019-03-26T08:32:06.862Z,35.3
2019-03-26T08:32:57.199Z,35.3
2019-03-26T08:33:46.981Z,35.2
2019-03-26T08:34:37.313Z,35.2
2019-03-26T08:35:27.090Z,35.2
2019-03-26T08:36:17.160Z,35.2
2019-03-26T08:37:07.496Z,35.1
2019-03-26T08:38:11.190Z,35.1
2019-03-26T08:38:47.628Z,35.1
2019-03-26T08:39:37.670Z,35.1
2019-03-26T08:40:27.461Z,35.1
2019-03-26T08:41:17.820Z,35
2019-03-26T08:42:07.588Z,35
2019-03-26T08:42:57.918Z,35
2019-03-26T08:43:47.978Z,34.9
2019-03-26T08:44:37.753Z,34.9
2019-03-26T08:45:28.096Z,34.9
2019-03-26T08:46:18.155Z,34.8
2019-03-26T08:47:08.213Z,34.8
2019-03-26T08:47:58.277Z,34.8
2019-03-26T08:48:48.345Z,34.8
2019-03-26T08:49:37.845Z,34.7
2019-03-26T08:50:28.515Z,34.7
2019-03-26T08:51:18.518Z,34.7
2019-03-26T08:52:08.599Z,34.6
2019-03-26T08:52:58.727Z,34.6
2019-03-26T08:53:48.420Z,34.6
2019-03-26T08:54:38.757Z,34.6
2019-03-26T08:55:28.827Z,34.6
2019-03-26T08:56:18.882Z,34.6
2019-03-26T08:57:08.956Z,34.5
2019-03-26T08:57:59.017Z,34.5
2019-03-26T08:58:49.070Z,34.5
2019-03-26T08:59:39.134Z,34.6
2019-03-26T09:00:32.593Z,34.6
2019-03-26T09:01:19.016Z,34.6
2019-03-26T09:02:09.313Z,34.6
2019-03-26T09:02:59.374Z,34.6
2019-03-26T09:03:49.422Z,34.6
2019-03-26T09:04:39.509Z,34.6
2019-03-26T09:05:29.581Z,34.6
2019-03-26T09:06:19.601Z,34.6
2019-03-26T09:07:12.591Z,34.7
2019-03-26T09:07:59.743Z,34.8
2019-03-26T09:08:49.524Z,34.9
2019-03-26T09:09:41.436Z,34.9
2019-03-26T09:10:29.946Z,35
2019-03-26T09:11:19.693Z,35.1
2019-03-26T09:12:10.028Z,35.2
2019-03-26T09:13:00.090Z,35.3
2019-03-26T09:13:50.151Z,35.3
2019-03-26T09:14:40.203Z,35.4
2019-03-26T09:15:30.339Z,35.5
2019-03-26T09:16:20.328Z,35.6
2019-03-26T09:17:10.433Z,35.7
2019-03-26T09:18:00.507Z,35.8
2019-03-26T09:18:50.516Z,35.8
2019-03-26T09:19:40.579Z,35.8
2019-03-26T09:20:30.632Z,35.9
2019-03-26T09:21:20.423Z,35.9
2019-03-26T09:22:10.755Z,35.9
2019-03-26T09:23:00.566Z,36
2019-03-26T09:23:50.878Z,36.1
2019-03-26T09:24:40.961Z,36.1
2019-03-26T09:25:31.003Z,36.2
2019-03-26T09:26:21.050Z,36.2
2019-03-26T09:27:10.833Z,36.2
2019-03-26T09:28:01.180Z,36.1
2019-03-26T09:28:51.253Z,36.1
2019-03-26T09:29:41.305Z,36.1
2019-03-26T09:30:31.377Z,36
2019-03-26T09:31:21.147Z,35.9
2019-03-26T09:32:11.485Z,35.9
2019-03-26T09:33:01.555Z,35.8
2019-03-26T09:33:51.602Z,35.8
2019-03-26T09:34:41.665Z,35.8
2019-03-26T09:35:31.725Z,35.8
2019-03-26T09:36:21.777Z,35.8
2019-03-26T09:37:11.839Z,35.8
2019-03-26T09:38:01.630Z,35.8
2019-03-26T09:38:51.967Z,35.8
2019-03-26T09:39:42.090Z,35.8
2019-03-26T09:40:32.107Z,35.7
2019-03-26T09:41:22.165Z,35.5
2019-03-26T09:42:11.922Z,35.2
2019-03-26T09:43:02.285Z,35
2019-03-26T09:43:52.069Z,34.9
2019-03-26T09:44:42.128Z,34.9
2019-03-26T09:45:32.457Z,34.9
2019-03-26T09:46:22.523Z,35
2019-03-26T09:47:18.081Z,34.9
2019-03-26T09:48:02.373Z,34.5
2019-03-26T09:48:52.695Z,34.3
2019-03-26T09:49:42.207Z,34.3
2019-03-26T09:50:32.826Z,34.3
2019-03-26T09:51:22.608Z,34.1
2019-03-26T09:52:12.399Z,34.1
2019-03-26T09:53:03.089Z,34.1
2019-03-26T09:53:52.799Z,34.1
2019-03-26T09:54:43.107Z,34
2019-03-26T09:55:33.176Z,34
2019-03-26T09:56:33.207Z,33.7
2019-03-26T09:57:13.298Z,33.6
2019-03-26T09:58:03.100Z,33.6
2019-03-26T09:58:53.417Z,33.6
2019-03-26T09:59:43.214Z,33.6
2019-03-26T10:00:33.719Z,33.6
2019-03-26T10:01:23.607Z,33.7
2019-03-26T10:02:13.743Z,33.7
2019-03-26T10:03:03.741Z,33.7
2019-03-26T10:03:53.777Z,33.7
2019-03-26T10:06:25.565Z,33.7
2019-03-26T10:07:22.933Z,33.3
2019-03-26T10:08:17.747Z,33.2
2019-03-26T10:09:01.023Z,33.1
2019-03-26T10:09:51.741Z,33.1
2019-03-26T10:10:40.388Z,33.1
2019-03-26T10:11:31.858Z,33.1
2019-03-26T10:12:24.513Z,33.1
2019-03-26T10:13:10.853Z,33
2019-03-26T10:14:00.921Z,33
2019-03-26T10:14:50.717Z,33
2019-03-26T10:15:41.053Z,33
2019-03-26T10:16:31.328Z,33
2019-03-26T10:17:20.904Z,33
2019-03-26T10:18:10.941Z,33.1
2019-03-26T10:19:01.318Z,33.1
2019-03-26T10:19:51.352Z,33.2
2019-03-26T10:20:41.418Z,33.3
2019-03-26T10:21:31.475Z,33.3
2019-03-26T10:22:21.509Z,33.3
2019-03-26T10:23:11.595Z,33.4
2019-03-26T10:24:01.656Z,33.6
2019-03-26T10:24:51.697Z,33.8
2019-03-26T10:25:41.762Z,34
2019-03-26T10:26:31.549Z,34.1
2019-03-26T10:27:21.597Z,34.3
2019-03-26T10:28:11.698Z,34.4
2019-03-26T10:29:31.829Z,34.4
2019-03-26T10:29:57.026Z,34.5
2019-03-26T10:30:47.262Z,34.5
2019-03-26T10:31:37.599Z,34.6
2019-03-26T10:32:27.669Z,34.7
2019-03-26T10:33:17.731Z,34.8
2019-03-26T10:34:07.507Z,34.9
2019-03-26T10:34:57.847Z,35.1
2019-03-26T10:35:47.992Z,35.1
2019-03-26T10:36:37.970Z,35.2
2019-03-26T10:37:28.029Z,35.2
2019-03-26T10:38:17.819Z,35.3
2019-03-26T10:39:08.147Z,35.1
2019-03-26T10:39:58.229Z,34.8
2019-03-26T10:40:48.299Z,34.8
2019-03-26T10:41:38.047Z,34.8
2019-03-26T10:42:28.409Z,34.8
2019-03-26T10:43:18.485Z,34.8
2019-03-26T10:44:08.532Z,34.8
2019-03-26T10:44:58.584Z,34.9
2019-03-26T10:45:48.639Z,34.8
2019-03-26T10:46:38.694Z,34.8
2019-03-26T10:47:28.476Z,34.8
2019-03-26T10:48:18.551Z,34.8
2019-03-26T10:49:08.606Z,34.8
2019-03-26T10:49:58.959Z,34.8
2019-03-26T10:50:49.001Z,34.9
2019-03-26T10:51:39.078Z,35
2019-03-26T10:52:35.416Z,35.1
2019-03-26T10:53:19.182Z,35.1
2019-03-26T10:54:08.959Z,35.1
2019-03-26T10:54:59.026Z,35.1
2019-03-26T10:55:49.376Z,35.1
2019-03-26T10:56:39.442Z,35.1
2019-03-26T10:57:29.495Z,35
2019-03-26T10:58:19.548Z,35
2019-03-26T10:59:09.608Z,35
2019-03-26T10:59:59.674Z,35.1
2019-03-26T11:00:49.750Z,35.1
2019-03-26T11:01:39.785Z,35.1
2019-03-26T11:02:29.853Z,35.1
2019-03-26T11:03:19.917Z,35.1
2019-03-26T11:04:09.981Z,35.1
2019-03-26T11:05:00.028Z,35.2
2019-03-26T11:05:50.083Z,35.2
2019-03-26T11:06:40.165Z,35.2
2019-03-26T11:07:29.948Z,35.3
2019-03-26T11:08:20.003Z,35.3
2019-03-26T11:10:00.639Z,35.3
2019-03-26T11:10:50.458Z,35.3
2019-03-26T11:11:40.232Z,35.3
2019-03-26T11:12:30.580Z,35.3
2019-03-26T11:13:20.630Z,35.3
2019-03-26T11:14:10.709Z,35.3
2019-03-26T11:15:00.881Z,35.2
2019-03-26T11:15:50.814Z,35.1
2019-03-26T11:16:40.880Z,35.1
2019-03-26T11:17:30.928Z,35
2019-03-26T11:18:20.717Z,34.9
2019-03-26T11:19:11.049Z,34.8
2019-03-26T11:20:00.735Z,34.8
2019-03-26T11:21:04.422Z,34.7
2019-03-26T11:21:41.234Z,34.6
2019-03-26T11:22:31.304Z,34.6
2019-03-26T11:23:21.086Z,34.6
2019-03-26T11:24:11.414Z,34.5
2019-03-26T11:25:01.217Z,34.4
2019-03-26T11:25:51.184Z,34.4
2019-03-26T11:26:41.332Z,34.3
2019-03-26T11:27:31.896Z,34.3
2019-03-26T11:28:21.719Z,34.3
2019-03-26T11:29:11.782Z,34.2
2019-03-26T11:30:01.971Z,34.1
2019-03-26T11:30:51.624Z,34.1
2019-03-26T11:31:41.966Z,34
2019-03-26T11:32:31.555Z,34
2019-03-26T11:33:22.099Z,33.9
2019-03-26T11:34:11.866Z,33.9
2019-03-26T11:35:02.226Z,33.8
2019-03-26T11:35:52.279Z,33.8
2019-03-26T11:36:42.321Z,33.7
2019-03-26T11:37:32.128Z,33.6
2019-03-26T11:38:22.173Z,33.6
2019-03-26T11:39:12.252Z,33.3
2019-03-26T11:40:02.024Z,32.6
2019-03-26T11:40:52.373Z,32.1
2019-03-26T11:41:42.687Z,31.6
2019-03-26T11:42:32.758Z,30.9
2019-03-26T11:43:22.817Z,30.4
2019-03-26T11:44:12.868Z,29.9
2019-03-26T11:45:02.988Z,29.3
2019-03-26T11:45:52.433Z,28.8
2019-03-26T11:46:42.778Z,28.5
2019-03-26T11:47:33.115Z,28.4
2019-03-26T11:48:22.895Z,28.3
2019-03-26T11:49:12.946Z,28.2
2019-03-26T11:50:06.248Z,28.1
2019-03-26T11:50:53.350Z,28.1
2019-03-26T11:51:43.425Z,27.9
2019-03-26T11:52:33.477Z,27.9
2019-03-26T11:54:13.590Z,27.8
2019-03-26T11:55:03.639Z,27.7
2019-03-26T11:56:08.373Z,27.7
2019-03-26T11:56:43.807Z,27.7
2019-03-26T11:57:33.817Z,27.6
2019-03-26T11:58:32.168Z,27.6
2019-03-26T11:59:13.673Z,27.6
2019-03-26T12:00:04.020Z,27.4
2019-03-26T12:00:53.812Z,27.4
2019-03-26T12:01:44.135Z,27.4
2019-03-26T12:02:34.891Z,27.3
2019-03-26T12:03:24.265Z,27.2
2019-03-26T12:04:14.315Z,27.1
2019-03-26T12:06:20.055Z,26.8
2019-03-26T12:07:10.128Z,26.6
2019-03-26T12:08:00.726Z,26.4
2019-03-26T12:08:50.790Z,26.3
2019-03-26T12:09:48.025Z,26.1
2019-03-26T12:10:30.901Z,25.9
2019-03-26T12:11:20.781Z,25.8
2019-03-26T12:12:11.016Z,25.6
2019-03-26T12:13:00.801Z,25.5
2019-03-26T12:13:51.147Z,25.4
2019-03-26T12:14:40.931Z,25.2
2019-03-26T12:15:31.273Z,25.1
2019-03-26T12:16:21.326Z,24.9
2019-03-26T12:17:14.566Z,24.8
2019-03-26T12:18:01.175Z,24.6
2019-03-26T12:18:51.503Z,24.5
2019-03-26T12:19:41.564Z,24.4
2019-03-26T12:20:31.344Z,24.3
2019-03-26T12:21:21.683Z,24.1
2019-03-26T12:22:11.755Z,24
2019-03-26T12:23:01.819Z,23.9
2019-03-26T12:23:51.593Z,23.7
2019-03-26T12:24:41.926Z,23.6
2019-03-26T12:25:31.715Z,23.4
2019-03-26T12:26:22.042Z,23.4
2019-03-26T12:27:11.560Z,23.3
2019-03-26T12:28:02.199Z,23.1
2019-03-26T12:28:52.230Z,23
2019-03-26T12:29:42.308Z,22.9
2019-03-26T12:30:32.367Z,22.8
2019-03-26T12:31:22.420Z,22.7
2019-03-26T12:32:12.480Z,22.6
2019-03-26T12:33:02.568Z,22.4
2019-03-26T12:33:52.603Z,22.4
2019-03-26T12:34:42.664Z,22.3
2019-03-26T12:35:32.470Z,22.2
2019-03-26T12:36:22.783Z,22.1
2019-03-26T12:37:12.850Z,22
2019-03-26T12:38:02.899Z,21.9
2019-03-26T12:38:52.678Z,21.8
2019-03-26T12:40:00.594Z,21.8
2019-03-26T12:40:33.078Z,21.6
2019-03-26T12:41:23.162Z,21.6
2019-03-26T12:42:13.214Z,21.4
2019-03-26T12:43:02.989Z,21.4
2019-03-26T12:43:53.337Z,21.3
2019-03-26T12:44:43.384Z,21.3
2019-03-26T12:45:33.442Z,21.2
2019-03-26T12:46:23.496Z,21.1
2019-03-26T12:47:13.553Z,21
2019-03-26T12:48:03.622Z,20.9
2019-03-26T12:48:53.404Z,20.9
2019-03-26T12:49:43.752Z,20.8
2019-03-26T12:50:33.889Z,20.8
2019-03-26T12:51:23.869Z,20.7
2019-03-26T12:52:13.919Z,20.6
2019-03-26T12:53:04.071Z,20.6
2019-03-26T12:53:54.042Z,20.6
2019-03-26T12:54:44.102Z,20.5
2019-03-26T12:55:34.164Z,20.4
2019-03-26T12:56:24.228Z,20.4
2019-03-26T12:57:15.584Z,20.3
2019-03-26T12:58:04.434Z,20.3
2019-03-26T12:58:54.411Z,20.2
2019-03-26T12:59:44.206Z,20.2
2019-03-26T13:00:34.651Z,20.1
2019-03-26T13:01:24.686Z,20.1
2019-03-26T13:02:14.366Z,20.1
2019-03-26T13:03:04.722Z,20
2019-03-26T13:03:54.855Z,19.9
2019-03-26T13:04:44.563Z,19.9
2019-03-26T13:05:34.961Z,19.9
2019-03-26T13:06:24.960Z,19.8
2019-03-26T13:07:14.740Z,19.8
2019-03-26T13:08:05.080Z,19.8
2019-03-26T13:08:54.863Z,19.8
2019-03-26T13:09:45.190Z,19.7
2019-03-26T13:10:34.999Z,19.7
2019-03-26T13:11:25.317Z,19.6
2019-03-26T13:12:15.100Z,19.6
2019-03-26T13:13:05.435Z,19.6
2019-03-26T13:13:55.500Z,19.6
2019-03-26T13:14:45.282Z,19.6
2019-03-26T13:15:35.335Z,19.5
2019-03-26T13:16:25.672Z,19.5
2019-03-26T13:17:15.728Z,19.5
2019-03-26T13:18:05.810Z,19.5
2019-03-26T13:18:55.850Z,19.5
2019-03-26T13:19:45.642Z,19.5
2019-03-26T13:20:35.969Z,19.5
2019-03-26T13:21:26.050Z,19.5
2019-03-26T13:22:16.098Z,19.4
2019-03-26T13:23:05.887Z,19.4
2019-03-26T13:23:56.221Z,19.4
2019-03-26T13:24:46.286Z,19.4
2019-03-26T13:25:36.344Z,19.4
2019-03-26T13:26:26.399Z,19.4
2019-03-26T13:27:16.196Z,19.4
2019-03-26T13:28:06.514Z,19.4
2019-03-26T13:28:56.594Z,19.3
2019-03-26T13:29:46.654Z,19.3
2019-03-26T13:30:36.427Z,19.3
2019-03-26T13:31:26.865Z,19.3
2019-03-26T13:32:16.833Z,19.3
2019-03-26T13:33:06.897Z,19.3
2019-03-26T13:33:56.661Z,19.3
2019-03-26T13:34:47.014Z,19.3
2019-03-26T13:35:37.061Z,19.2
2019-03-26T13:36:27.139Z,19.2
2019-03-26T13:37:17.209Z,19.2
2019-03-26T13:38:07.261Z,19.2
2019-03-26T13:38:57.321Z,19.2
2019-03-26T13:39:47.373Z,19.2
2019-03-26T13:40:37.431Z,19.1
2019-03-26T13:41:27.506Z,19.1
2019-03-26T13:42:17.288Z,19.1
2019-03-26T13:43:07.623Z,19.1
2019-03-26T13:43:57.673Z,19.1
2019-03-26T13:44:47.721Z,19.1
2019-03-26T13:45:37.807Z,19.1
2019-03-26T13:46:27.861Z,19.1
2019-03-26T13:47:17.913Z,19.1
2019-03-26T13:48:07.966Z,19.1
2019-03-26T13:48:58.031Z,19.1
2019-03-26T13:49:48.104Z,19.1
2019-03-26T13:50:38.146Z,19.1
2019-03-26T13:51:28.210Z,19.1
2019-03-26T13:52:18.295Z,19.1
2019-03-26T13:53:08.124Z,19.1
2019-03-26T13:53:58.403Z,19.1
2019-03-26T13:54:48.460Z,19.1
2019-03-26T13:55:38.516Z,19.1
2019-03-26T13:56:28.580Z,19.1
2019-03-26T13:57:18.648Z,19.1
2019-03-26T13:58:08.702Z,19.1
2019-03-26T13:58:58.765Z,19.1
2019-03-26T13:59:50.648Z,19.1
2019-03-26T14:00:38.883Z,19.1
2019-03-26T14:01:28.950Z,19.1
2019-03-26T14:02:19.018Z,19.1
2019-03-26T14:03:08.788Z,19.1
2019-03-26T14:03:59.114Z,19.1
2019-03-26T14:04:48.915Z,19.1
2019-03-26T14:07:20.519Z,19.1
2019-03-26T14:08:10.022Z,19.1
2019-03-26T14:09:00.467Z,19.1
2019-03-26T14:09:50.427Z,19.1
2019-03-26T14:10:42.906Z,19.1
2019-03-26T14:11:30.809Z,19
2019-03-26T14:12:20.883Z,18.9
2019-03-26T14:13:10.934Z,18.9
2019-03-26T14:14:00.736Z,18.9
2019-03-26T14:14:50.772Z,18.9
2019-03-26T14:15:41.125Z,18.9
2019-03-26T14:16:31.189Z,18.8
2019-03-26T14:17:20.974Z,18.8
2019-03-26T14:18:11.309Z,18.8
2019-03-26T14:19:01.359Z,18.8
2019-03-26T14:21:31.279Z,18.6
2019-03-26T14:22:21.599Z,18.6
2019-03-26T14:23:11.738Z,18.6
2019-03-26T14:24:01.728Z,18.6
2019-03-26T14:24:51.514Z,18.6
2019-03-26T14:25:41.581Z,18.5
2019-03-26T14:26:31.629Z,18.5
2019-03-26T14:27:21.970Z,18.4
2019-03-26T14:28:12.018Z,18.4
2019-03-26T14:29:02.091Z,18.4
2019-03-26T14:29:51.888Z,18.4
2019-03-26T14:30:41.673Z,18.3
2019-03-26T14:31:32.272Z,18.3
2019-03-26T14:32:22.342Z,18.3
2019-03-26T14:33:12.122Z,18.2